sensor_id;sensor_type;location;lat;lon;timestamp;P1;durP1;ratioP1;P2;durP2;ratioP2
3359;SDS011;1693;49.602;11.046;2023-04-30T00:02:20;7.67;;;6.53;;
3359;SDS011;1693;49.602;11.046;2023-04-30T00:04:48;7.73;;;6.60;;
3359;SDS011;1693;49.602;11.046;2023-04-30T00:07:15;7.60;;;6.80;;
3359;SDS011;1693;49.602;11.046;2023-04-30T00:09:43;9.50;;;7.17;;
3359;SDS011;1693;49.602;11.046;2023-04-30T00:12:10;8.90;;;7.30;;
3359;SDS011;1693;49.602;11.046;2023-04-30T00:14:37;8.03;;;6.57;;
3359;SDS011;1693;49.602;11.046;2023-04-30T00:17:04;7.60;;;6.47;;
3359;SDS011;1693;49.602;11.046;2023-04-30T00:19:31;7.70;;;6.67;;
3359;SDS011;1693;49.602;11.046;2023-04-30T00:21:59;9.00;;;6.50;;
3359;SDS011;1693;49.602;11.046;2023-04-30T00:24:26;7.37;;;6.67;;
3359;SDS011;1693;49.602;11.046;2023-04-30T00:26:54;7.03;;;6.30;;
3359;SDS011;1693;49.602;11.046;2023-04-30T00:29:20;7.90;;;6.80;;
3359;SDS011;1693;49.602;11.046;2023-04-30T00:31:47;9.63;;;7.10;;
3359;SDS011;1693;49.602;11.046;2023-04-30T00:34:14;7.40;;;6.70;;
3359;SDS011;1693;49.602;11.046;2023-04-30T00:36:42;9.30;;;7.70;;
3359;SDS011;1693;49.602;11.046;2023-04-30T00:39:10;10.23;;;8.83;;
3359;SDS011;1693;49.602;11.046;2023-04-30T00:41:38;9.07;;;7.97;;
3359;SDS011;1693;49.602;11.046;2023-04-30T00:44:06;8.13;;;7.33;;
3359;SDS011;1693;49.602;11.046;2023-04-30T00:46:33;8.17;;;7.27;;
3359;SDS011;1693;49.602;11.046;2023-04-30T00:49:00;9.80;;;7.93;;
3359;SDS011;1693;49.602;11.046;2023-04-30T00:51:29;9.13;;;7.93;;
3359;SDS011;1693;49.602;11.046;2023-04-30T00:53:57;8.27;;;7.40;;
3359;SDS011;1693;49.602;11.046;2023-04-30T00:56:28;10.00;;;7.33;;
3359;SDS011;1693;49.602;11.046;2023-04-30T00:58:56;10.27;;;8.67;;
3359;SDS011;1693;49.602;11.046;2023-04-30T01:01:23;7.50;;;6.80;;
3359;SDS011;1693;49.602;11.046;2023-04-30T01:03:52;8.37;;;7.53;;
3359;SDS011;1693;49.602;11.046;2023-04-30T01:06:20;11.90;;;7.57;;
3359;SDS011;1693;49.602;11.046;2023-04-30T01:08:47;8.97;;;6.90;;
3359;SDS011;1693;49.602;11.046;2023-04-30T01:11:16;13.27;;;7.60;;
3359;SDS011;1693;49.602;11.046;2023-04-30T01:13:54;8.20;;;7.40;;
3359;SDS011;1693;49.602;11.046;2023-04-30T01:16:31;10.53;;;8.20;;
3359;SDS011;1693;49.602;11.046;2023-04-30T01:19:03;8.87;;;7.97;;
3359;SDS011;1693;49.602;11.046;2023-04-30T01:21:50;8.40;;;7.60;;
3359;SDS011;1693;49.602;11.046;2023-04-30T01:24:23;10.10;;;9.13;;
3359;SDS011;1693;49.602;11.046;2023-04-30T01:27:12;11.40;;;7.53;;
3359;SDS011;1693;49.602;11.046;2023-04-30T01:29:48;9.03;;;8.13;;
3359;SDS011;1693;49.602;11.046;2023-04-30T01:32:18;12.00;;;9.03;;
3359;SDS011;1693;49.602;11.046;2023-04-30T01:34:45;9.70;;;7.70;;
3359;SDS011;1693;49.602;11.046;2023-04-30T01:37:15;8.73;;;7.90;;
3359;SDS011;1693;49.602;11.046;2023-04-30T01:39:49;8.67;;;7.87;;
3359;SDS011;1693;49.602;11.046;2023-04-30T01:42:28;9.00;;;8.10;;
3359;SDS011;1693;49.602;11.046;2023-04-30T01:45:10;10.77;;;9.50;;
3359;SDS011;1693;49.602;11.046;2023-04-30T01:47:47;9.30;;;8.40;;
3359;SDS011;1693;49.602;11.046;2023-04-30T01:50:22;14.87;;;8.60;;
3359;SDS011;1693;49.602;11.046;2023-04-30T01:52:59;10.20;;;9.20;;
3359;SDS011;1693;49.602;11.046;2023-04-30T01:55:33;9.30;;;8.07;;
3359;SDS011;1693;49.602;11.046;2023-04-30T01:58:04;8.73;;;7.77;;
3359;SDS011;1693;49.602;11.046;2023-04-30T02:00:33;10.60;;;9.00;;
3359;SDS011;1693;49.602;11.046;2023-04-30T02:03:03;11.03;;;9.73;;
3359;SDS011;1693;49.602;11.046;2023-04-30T02:05:33;9.87;;;8.57;;
3359;SDS011;1693;49.602;11.046;2023-04-30T02:08:00;10.10;;;9.10;;
3359;SDS011;1693;49.602;11.046;2023-04-30T02:10:27;9.93;;;8.93;;
3359;SDS011;1693;49.602;11.046;2023-04-30T02:12:54;10.07;;;8.90;;
3359;SDS011;1693;49.602;11.046;2023-04-30T02:15:22;9.50;;;8.10;;
3359;SDS011;1693;49.602;11.046;2023-04-30T02:17:50;10.47;;;9.33;;
3359;SDS011;1693;49.602;11.046;2023-04-30T02:20:17;9.73;;;8.50;;
3359;SDS011;1693;49.602;11.046;2023-04-30T02:22:44;9.70;;;8.70;;
3359;SDS011;1693;49.602;11.046;2023-04-30T02:25:12;10.47;;;9.37;;
3359;SDS011;1693;49.602;11.046;2023-04-30T02:27:39;10.00;;;8.63;;
3359;SDS011;1693;49.602;11.046;2023-04-30T02:30:06;12.93;;;10.53;;
3359;SDS011;1693;49.602;11.046;2023-04-30T02:32:34;10.07;;;9.07;;
3359;SDS011;1693;49.602;11.046;2023-04-30T02:35:04;9.43;;;8.57;;
3359;SDS011;1693;49.602;11.046;2023-04-30T02:37:31;9.60;;;8.60;;
3359;SDS011;1693;49.602;11.046;2023-04-30T02:39:58;12.97;;;10.70;;
3359;SDS011;1693;49.602;11.046;2023-04-30T02:42:26;11.57;;;9.97;;
3359;SDS011;1693;49.602;11.046;2023-04-30T02:44:53;11.23;;;10.07;;
3359;SDS011;1693;49.602;11.046;2023-04-30T02:47:20;11.60;;;10.40;;
3359;SDS011;1693;49.602;11.046;2023-04-30T02:49:47;14.70;;;10.57;;
3359;SDS011;1693;49.602;11.046;2023-04-30T02:52:16;11.07;;;9.83;;
3359;SDS011;1693;49.602;11.046;2023-04-30T02:54:43;13.60;;;9.43;;
3359;SDS011;1693;49.602;11.046;2023-04-30T02:57:10;10.50;;;8.90;;
3359;SDS011;1693;49.602;11.046;2023-04-30T02:59:37;13.40;;;9.67;;
3359;SDS011;1693;49.602;11.046;2023-04-30T03:02:04;11.07;;;9.90;;
3359;SDS011;1693;49.602;11.046;2023-04-30T03:04:31;12.73;;;9.63;;
3359;SDS011;1693;49.602;11.046;2023-04-30T03:06:58;9.50;;;8.60;;
3359;SDS011;1693;49.602;11.046;2023-04-30T03:09:28;10.03;;;9.03;;
3359;SDS011;1693;49.602;11.046;2023-04-30T03:11:57;14.07;;;10.33;;
3359;SDS011;1693;49.602;11.046;2023-04-30T03:14:24;10.67;;;8.67;;
3359;SDS011;1693;49.602;11.046;2023-04-30T03:16:51;10.97;;;9.77;;
3359;SDS011;1693;49.602;11.046;2023-04-30T03:19:19;10.93;;;9.00;;
3359;SDS011;1693;49.602;11.046;2023-04-30T03:21:49;10.73;;;9.63;;
3359;SDS011;1693;49.602;11.046;2023-04-30T03:24:16;10.20;;;9.10;;
3359;SDS011;1693;49.602;11.046;2023-04-30T03:26:44;10.43;;;9.43;;
3359;SDS011;1693;49.602;11.046;2023-04-30T03:29:12;13.20;;;9.37;;
3359;SDS011;1693;49.602;11.046;2023-04-30T03:31:39;13.93;;;9.87;;
3359;SDS011;1693;49.602;11.046;2023-04-30T03:34:06;11.80;;;10.67;;
3359;SDS011;1693;49.602;11.046;2023-04-30T03:36:33;11.50;;;10.30;;
3359;SDS011;1693;49.602;11.046;2023-04-30T03:39:00;9.67;;;8.77;;
3359;SDS011;1693;49.602;11.046;2023-04-30T03:41:28;12.10;;;10.70;;
3359;SDS011;1693;49.602;11.046;2023-04-30T03:43:56;11.63;;;9.70;;
3359;SDS011;1693;49.602;11.046;2023-04-30T03:46:23;12.40;;;9.33;;
3359;SDS011;1693;49.602;11.046;2023-04-30T03:48:50;10.40;;;9.40;;
3359;SDS011;1693;49.602;11.046;2023-04-30T03:51:18;11.47;;;10.13;;
3359;SDS011;1693;49.602;11.046;2023-04-30T03:53:46;12.20;;;10.37;;
3359;SDS011;1693;49.602;11.046;2023-04-30T03:56:13;12.73;;;11.47;;
3359;SDS011;1693;49.602;11.046;2023-04-30T03:58:40;10.87;;;9.73;;
3359;SDS011;1693;49.602;11.046;2023-04-30T04:01:09;10.80;;;9.27;;
3359;SDS011;1693;49.602;11.046;2023-04-30T04:03:36;12.03;;;10.20;;
3359;SDS011;1693;49.602;11.046;2023-04-30T04:06:04;10.60;;;9.50;;
3359;SDS011;1693;49.602;11.046;2023-04-30T04:08:31;12.77;;;11.47;;
3359;SDS011;1693;49.602;11.046;2023-04-30T04:10:58;15.07;;;10.70;;
3359;SDS011;1693;49.602;11.046;2023-04-30T04:13:25;12.63;;;11.47;;
3359;SDS011;1693;49.602;11.046;2023-04-30T04:15:52;11.70;;;10.47;;
3359;SDS011;1693;49.602;11.046;2023-04-30T04:18:20;11.80;;;10.60;;
3359;SDS011;1693;49.602;11.046;2023-04-30T04:20:47;11.43;;;10.33;;
3359;SDS011;1693;49.602;11.046;2023-04-30T04:23:14;23.07;;;19.60;;
3359;SDS011;1693;49.602;11.046;2023-04-30T04:25:41;17.40;;;14.60;;
3359;SDS011;1693;49.602;11.046;2023-04-30T04:28:13;25.03;;;18.17;;
3359;SDS011;1693;49.602;11.046;2023-04-30T04:30:41;23.13;;;17.03;;
3359;SDS011;1693;49.602;11.046;2023-04-30T04:33:08;11.50;;;9.90;;
3359;SDS011;1693;49.602;11.046;2023-04-30T04:35:37;11.83;;;10.63;;
3359;SDS011;1693;49.602;11.046;2023-04-30T04:38:04;11.90;;;10.53;;
3359;SDS011;1693;49.602;11.046;2023-04-30T04:40:31;11.00;;;8.60;;
3359;SDS011;1693;49.602;11.046;2023-04-30T04:42:59;12.80;;;10.30;;
3359;SDS011;1693;49.602;11.046;2023-04-30T04:45:26;13.20;;;10.60;;
3359;SDS011;1693;49.602;11.046;2023-04-30T04:47:53;12.20;;;10.47;;
3359;SDS011;1693;49.602;11.046;2023-04-30T04:50:20;11.30;;;10.10;;
3359;SDS011;1693;49.602;11.046;2023-04-30T04:52:49;12.57;;;9.60;;
3359;SDS011;1693;49.602;11.046;2023-04-30T04:55:16;13.20;;;9.97;;
3359;SDS011;1693;49.602;11.046;2023-04-30T04:57:44;10.90;;;9.80;;
3359;SDS011;1693;49.602;11.046;2023-04-30T05:00:11;10.63;;;9.30;;
3359;SDS011;1693;49.602;11.046;2023-04-30T05:02:38;12.23;;;9.67;;
3359;SDS011;1693;49.602;11.046;2023-04-30T05:05:06;11.17;;;9.87;;
3359;SDS011;1693;49.602;11.046;2023-04-30T05:07:35;10.70;;;9.30;;
3359;SDS011;1693;49.602;11.046;2023-04-30T05:10:03;10.90;;;9.13;;
3359;SDS011;1693;49.602;11.046;2023-04-30T05:12:31;12.50;;;11.30;;
3359;SDS011;1693;49.602;11.046;2023-04-30T05:14:58;11.40;;;9.47;;
3359;SDS011;1693;49.602;11.046;2023-04-30T05:17:26;12.90;;;10.70;;
3359;SDS011;1693;49.602;11.046;2023-04-30T05:19:53;13.30;;;10.50;;
3359;SDS011;1693;49.602;11.046;2023-04-30T05:22:20;11.60;;;9.47;;
3359;SDS011;1693;49.602;11.046;2023-04-30T05:24:47;10.57;;;9.40;;
3359;SDS011;1693;49.602;11.046;2023-04-30T05:27:18;9.80;;;8.80;;
3359;SDS011;1693;49.602;11.046;2023-04-30T05:29:45;11.83;;;10.10;;
3359;SDS011;1693;49.602;11.046;2023-04-30T05:32:12;11.10;;;10.00;;
3359;SDS011;1693;49.602;11.046;2023-04-30T05:34:39;11.57;;;10.40;;
3359;SDS011;1693;49.602;11.046;2023-04-30T05:37:06;13.40;;;10.30;;
3359;SDS011;1693;49.602;11.046;2023-04-30T05:39:33;12.47;;;11.20;;
3359;SDS011;1693;49.602;11.046;2023-04-30T05:42:00;12.70;;;10.30;;
3359;SDS011;1693;49.602;11.046;2023-04-30T05:44:29;12.90;;;10.57;;
3359;SDS011;1693;49.602;11.046;2023-04-30T05:46:56;14.40;;;11.53;;
3359;SDS011;1693;49.602;11.046;2023-04-30T05:49:23;12.27;;;10.87;;
3359;SDS011;1693;49.602;11.046;2023-04-30T05:51:51;13.07;;;11.47;;
3359;SDS011;1693;49.602;11.046;2023-04-30T05:54:18;10.83;;;9.37;;
3359;SDS011;1693;49.602;11.046;2023-04-30T05:56:45;13.47;;;10.00;;
3359;SDS011;1693;49.602;11.046;2023-04-30T05:59:12;10.37;;;9.37;;
3359;SDS011;1693;49.602;11.046;2023-04-30T06:01:40;11.10;;;8.93;;
3359;SDS011;1693;49.602;11.046;2023-04-30T06:04:08;11.60;;;10.23;;
3359;SDS011;1693;49.602;11.046;2023-04-30T06:06:36;10.50;;;9.40;;
3359;SDS011;1693;49.602;11.046;2023-04-30T06:09:03;11.87;;;9.00;;
3359;SDS011;1693;49.602;11.046;2023-04-30T06:11:30;9.20;;;8.07;;
3359;SDS011;1693;49.602;11.046;2023-04-30T06:13:57;11.40;;;9.70;;
3359;SDS011;1693;49.602;11.046;2023-04-30T06:16:24;9.80;;;8.83;;
3359;SDS011;1693;49.602;11.046;2023-04-30T06:18:53;8.17;;;7.37;;
3359;SDS011;1693;49.602;11.046;2023-04-30T06:21:21;10.53;;;8.53;;
3359;SDS011;1693;49.602;11.046;2023-04-30T06:23:50;10.13;;;7.97;;
3359;SDS011;1693;49.602;11.046;2023-04-30T06:26:17;11.07;;;9.33;;
3359;SDS011;1693;49.602;11.046;2023-04-30T06:28:45;9.17;;;8.27;;
3359;SDS011;1693;49.602;11.046;2023-04-30T06:31:12;18.10;;;15.00;;
3359;SDS011;1693;49.602;11.046;2023-04-30T06:33:39;11.10;;;7.97;;
3359;SDS011;1693;49.602;11.046;2023-04-30T06:36:08;10.20;;;9.00;;
3359;SDS011;1693;49.602;11.046;2023-04-30T06:38:35;9.50;;;7.77;;
3359;SDS011;1693;49.602;11.046;2023-04-30T06:41:02;8.60;;;7.70;;
3359;SDS011;1693;49.602;11.046;2023-04-30T06:43:30;10.70;;;8.43;;
3359;SDS011;1693;49.602;11.046;2023-04-30T06:45:57;9.10;;;7.87;;
3359;SDS011;1693;49.602;11.046;2023-04-30T06:48:24;8.57;;;7.67;;
3359;SDS011;1693;49.602;11.046;2023-04-30T06:50:51;11.70;;;6.93;;
3359;SDS011;1693;49.602;11.046;2023-04-30T06:53:20;7.40;;;6.30;;
3359;SDS011;1693;49.602;11.046;2023-04-30T06:55:47;7.90;;;7.10;;
3359;SDS011;1693;49.602;11.046;2023-04-30T06:58:14;6.50;;;5.90;;
3359;SDS011;1693;49.602;11.046;2023-04-30T07:00:42;7.10;;;6.33;;
3359;SDS011;1693;49.602;11.046;2023-04-30T07:03:09;8.30;;;7.00;;
3359;SDS011;1693;49.602;11.046;2023-04-30T07:05:37;8.20;;;6.77;;
3359;SDS011;1693;49.602;11.046;2023-04-30T07:08:04;6.97;;;6.27;;
3359;SDS011;1693;49.602;11.046;2023-04-30T07:10:33;9.03;;;5.73;;
3359;SDS011;1693;49.602;11.046;2023-04-30T07:13:00;7.97;;;7.23;;
3359;SDS011;1693;49.602;11.046;2023-04-30T07:15:27;14.00;;;8.97;;
3359;SDS011;1693;49.602;11.046;2023-04-30T07:20:44;7.30;;;5.37;;
3359;SDS011;1693;49.602;11.046;2023-04-30T07:23:11;7.73;;;5.63;;
3359;SDS011;1693;49.602;11.046;2023-04-30T07:25:39;8.47;;;5.70;;
3359;SDS011;1693;49.602;11.046;2023-04-30T07:28:06;6.30;;;5.43;;
3359;SDS011;1693;49.602;11.046;2023-04-30T07:30:33;5.23;;;4.60;;
3359;SDS011;1693;49.602;11.046;2023-04-30T07:33:01;5.87;;;5.27;;
3359;SDS011;1693;49.602;11.046;2023-04-30T07:35:28;7.17;;;5.50;;
3359;SDS011;1693;49.602;11.046;2023-04-30T07:37:55;13.93;;;5.50;;
3359;SDS011;1693;49.602;11.046;2023-04-30T07:40:23;8.13;;;5.20;;
3359;SDS011;1693;49.602;11.046;2023-04-30T07:42:52;7.33;;;6.50;;
3359;SDS011;1693;49.602;11.046;2023-04-30T07:45:19;6.00;;;4.57;;
3359;SDS011;1693;49.602;11.046;2023-04-30T07:47:46;5.00;;;4.50;;
3359;SDS011;1693;49.602;11.046;2023-04-30T07:50:13;12.43;;;5.10;;
3359;SDS011;1693;49.602;11.046;2023-04-30T07:52:41;5.47;;;4.30;;
3359;SDS011;1693;49.602;11.046;2023-04-30T07:55:08;9.93;;;5.10;;
3359;SDS011;1693;49.602;11.046;2023-04-30T07:57:35;5.33;;;4.80;;
3359;SDS011;1693;49.602;11.046;2023-04-30T08:00:04;4.80;;;4.23;;
3359;SDS011;1693;49.602;11.046;2023-04-30T08:02:32;4.80;;;3.97;;
3359;SDS011;1693;49.602;11.046;2023-04-30T08:05:01;4.70;;;4.27;;
3359;SDS011;1693;49.602;11.046;2023-04-30T08:07:29;4.90;;;4.40;;
3359;SDS011;1693;49.602;11.046;2023-04-30T08:09:56;4.47;;;4.03;;
3359;SDS011;1693;49.602;11.046;2023-04-30T08:12:23;5.10;;;3.77;;
3359;SDS011;1693;49.602;11.046;2023-04-30T08:14:58;5.80;;;4.60;;
3359;SDS011;1693;49.602;11.046;2023-04-30T08:17:27;5.63;;;4.43;;
3359;SDS011;1693;49.602;11.046;2023-04-30T08:19:54;5.27;;;3.57;;
3359;SDS011;1693;49.602;11.046;2023-04-30T08:22:21;4.50;;;3.77;;
3359;SDS011;1693;49.602;11.046;2023-04-30T08:24:49;5.57;;;3.33;;
3359;SDS011;1693;49.602;11.046;2023-04-30T08:27:16;3.60;;;3.30;;
3359;SDS011;1693;49.602;11.046;2023-04-30T08:29:43;3.90;;;3.03;;
3359;SDS011;1693;49.602;11.046;2023-04-30T08:32:10;3.63;;;2.87;;
3359;SDS011;1693;49.602;11.046;2023-04-30T08:34:38;3.50;;;2.73;;
3359;SDS011;1693;49.602;11.046;2023-04-30T08:37:05;3.13;;;2.77;;
3359;SDS011;1693;49.602;11.046;2023-04-30T08:39:33;2.10;;;1.90;;
3359;SDS011;1693;49.602;11.046;2023-04-30T08:42:00;4.70;;;2.80;;
3359;SDS011;1693;49.602;11.046;2023-04-30T08:44:29;4.47;;;3.43;;
3359;SDS011;1693;49.602;11.046;2023-04-30T08:46:57;4.70;;;3.00;;
3359;SDS011;1693;49.602;11.046;2023-04-30T08:49:26;3.40;;;3.00;;
3359;SDS011;1693;49.602;11.046;2023-04-30T08:51:58;4.40;;;3.60;;
3359;SDS011;1693;49.602;11.046;2023-04-30T08:54:26;6.70;;;3.60;;
3359;SDS011;1693;49.602;11.046;2023-04-30T08:56:56;2.97;;;2.63;;
3359;SDS011;1693;49.602;11.046;2023-04-30T08:59:23;4.40;;;2.67;;
3359;SDS011;1693;49.602;11.046;2023-04-30T09:01:50;3.30;;;2.47;;
3359;SDS011;1693;49.602;11.046;2023-04-30T09:04:17;3.60;;;2.60;;
3359;SDS011;1693;49.602;11.046;2023-04-30T09:06:44;3.70;;;2.80;;
3359;SDS011;1693;49.602;11.046;2023-04-30T09:09:13;3.03;;;2.73;;
3359;SDS011;1693;49.602;11.046;2023-04-30T09:11:41;2.63;;;2.43;;
3359;SDS011;1693;49.602;11.046;2023-04-30T09:14:08;3.27;;;2.40;;
3359;SDS011;1693;49.602;11.046;2023-04-30T09:16:44;3.00;;;2.20;;
3359;SDS011;1693;49.602;11.046;2023-04-30T09:21:54;3.20;;;2.47;;
3359;SDS011;1693;49.602;11.046;2023-04-30T09:24:23;3.57;;;2.70;;
3359;SDS011;1693;49.602;11.046;2023-04-30T09:26:50;1.70;;;1.60;;
3359;SDS011;1693;49.602;11.046;2023-04-30T09:29:17;2.47;;;2.20;;
3359;SDS011;1693;49.602;11.046;2023-04-30T09:31:44;2.33;;;2.10;;
3359;SDS011;1693;49.602;11.046;2023-04-30T09:34:12;2.17;;;1.97;;
3359;SDS011;1693;49.602;11.046;2023-04-30T09:36:50;2.80;;;2.27;;
3359;SDS011;1693;49.602;11.046;2023-04-30T09:39:19;2.30;;;2.10;;
3359;SDS011;1693;49.602;11.046;2023-04-30T09:41:48;3.97;;;2.43;;
3359;SDS011;1693;49.602;11.046;2023-04-30T09:44:26;3.00;;;2.30;;
3359;SDS011;1693;49.602;11.046;2023-04-30T09:46:53;3.23;;;2.73;;
3359;SDS011;1693;49.602;11.046;2023-04-30T09:49:22;3.60;;;2.27;;
3359;SDS011;1693;49.602;11.046;2023-04-30T09:51:53;3.50;;;2.40;;
3359;SDS011;1693;49.602;11.046;2023-04-30T09:54:21;2.90;;;2.20;;
3359;SDS011;1693;49.602;11.046;2023-04-30T09:56:54;2.13;;;1.93;;
3359;SDS011;1693;49.602;11.046;2023-04-30T09:59:24;2.90;;;2.17;;
3359;SDS011;1693;49.602;11.046;2023-04-30T10:01:55;1.90;;;1.67;;
3359;SDS011;1693;49.602;11.046;2023-04-30T10:04:25;3.93;;;1.80;;
3359;SDS011;1693;49.602;11.046;2023-04-30T10:06:54;2.20;;;1.83;;
3359;SDS011;1693;49.602;11.046;2023-04-30T10:09:24;3.50;;;2.23;;
3359;SDS011;1693;49.602;11.046;2023-04-30T10:11:55;4.20;;;2.03;;
3359;SDS011;1693;49.602;11.046;2023-04-30T10:14:23;4.23;;;2.00;;
3359;SDS011;1693;49.602;11.046;2023-04-30T10:16:56;2.20;;;2.00;;
3359;SDS011;1693;49.602;11.046;2023-04-30T10:19:29;1.63;;;1.40;;
3359;SDS011;1693;49.602;11.046;2023-04-30T10:21:58;2.00;;;1.73;;
3359;SDS011;1693;49.602;11.046;2023-04-30T10:24:26;4.17;;;2.23;;
3359;SDS011;1693;49.602;11.046;2023-04-30T10:26:55;4.03;;;2.10;;
3359;SDS011;1693;49.602;11.046;2023-04-30T10:29:23;3.20;;;2.90;;
3359;SDS011;1693;49.602;11.046;2023-04-30T10:31:50;3.73;;;1.73;;
3359;SDS011;1693;49.602;11.046;2023-04-30T10:34:20;2.17;;;1.93;;
3359;SDS011;1693;49.602;11.046;2023-04-30T10:36:53;1.80;;;1.60;;
3359;SDS011;1693;49.602;11.046;2023-04-30T10:39:25;3.40;;;2.13;;
3359;SDS011;1693;49.602;11.046;2023-04-30T10:42:00;4.03;;;2.67;;
3359;SDS011;1693;49.602;11.046;2023-04-30T10:44:28;2.77;;;2.57;;
3359;SDS011;1693;49.602;11.046;2023-04-30T10:46:58;2.10;;;1.63;;
3359;SDS011;1693;49.602;11.046;2023-04-30T10:49:27;5.30;;;2.27;;
3359;SDS011;1693;49.602;11.046;2023-04-30T10:51:55;2.93;;;1.83;;
3359;SDS011;1693;49.602;11.046;2023-04-30T10:54:25;2.00;;;1.80;;
3359;SDS011;1693;49.602;11.046;2023-04-30T10:56:54;2.63;;;1.60;;
3359;SDS011;1693;49.602;11.046;2023-04-30T10:59:40;3.37;;;1.70;;
3359;SDS011;1693;49.602;11.046;2023-04-30T11:02:10;1.80;;;1.60;;
3359;SDS011;1693;49.602;11.046;2023-04-30T11:07:35;2.13;;;1.60;;
3359;SDS011;1693;49.602;11.046;2023-04-30T11:10:03;2.50;;;1.40;;
3359;SDS011;1693;49.602;11.046;2023-04-30T11:12:36;1.30;;;1.20;;
3359;SDS011;1693;49.602;11.046;2023-04-30T11:15:11;3.07;;;1.33;;
3359;SDS011;1693;49.602;11.046;2023-04-30T11:17:42;2.30;;;1.70;;
3359;SDS011;1693;49.602;11.046;2023-04-30T11:20:11;4.80;;;3.73;;
3359;SDS011;1693;49.602;11.046;2023-04-30T11:22:38;1.90;;;1.60;;
3359;SDS011;1693;49.602;11.046;2023-04-30T11:25:08;1.60;;;1.37;;
3359;SDS011;1693;49.602;11.046;2023-04-30T11:27:39;4.03;;;1.30;;
3359;SDS011;1693;49.602;11.046;2023-04-30T11:30:09;2.47;;;1.33;;
3359;SDS011;1693;49.602;11.046;2023-04-30T11:32:39;1.57;;;1.30;;
3359;SDS011;1693;49.602;11.046;2023-04-30T11:35:07;1.67;;;1.17;;
3359;SDS011;1693;49.602;11.046;2023-04-30T11:37:35;1.77;;;1.10;;
3359;SDS011;1693;49.602;11.046;2023-04-30T11:40:04;1.60;;;0.90;;
3359;SDS011;1693;49.602;11.046;2023-04-30T11:42:35;1.63;;;0.90;;
3359;SDS011;1693;49.602;11.046;2023-04-30T11:45:06;1.20;;;0.97;;
3359;SDS011;1693;49.602;11.046;2023-04-30T11:47:37;1.30;;;0.97;;
3359;SDS011;1693;49.602;11.046;2023-04-30T11:50:08;1.60;;;1.07;;
3359;SDS011;1693;49.602;11.046;2023-04-30T11:52:37;1.37;;;0.93;;
3359;SDS011;1693;49.602;11.046;2023-04-30T11:55:05;2.27;;;1.30;;
3359;SDS011;1693;49.602;11.046;2023-04-30T11:57:34;1.60;;;0.80;;
3359;SDS011;1693;49.602;11.046;2023-04-30T12:00:11;2.83;;;1.10;;
3359;SDS011;1693;49.602;11.046;2023-04-30T12:02:40;1.57;;;1.33;;
3359;SDS011;1693;49.602;11.046;2023-04-30T12:05:14;1.23;;;1.00;;
3359;SDS011;1693;49.602;11.046;2023-04-30T12:07:48;1.30;;;1.10;;
3359;SDS011;1693;49.602;11.046;2023-04-30T12:10:17;1.50;;;1.20;;
3359;SDS011;1693;49.602;11.046;2023-04-30T12:12:46;1.40;;;0.87;;
3359;SDS011;1693;49.602;11.046;2023-04-30T12:15:16;2.30;;;1.07;;
3359;SDS011;1693;49.602;11.046;2023-04-30T12:17:44;3.00;;;0.90;;
3359;SDS011;1693;49.602;11.046;2023-04-30T12:20:12;1.10;;;0.80;;
3359;SDS011;1693;49.602;11.046;2023-04-30T12:22:40;1.50;;;1.27;;
3359;SDS011;1693;49.602;11.046;2023-04-30T12:25:10;1.20;;;1.00;;
3359;SDS011;1693;49.602;11.046;2023-04-30T12:27:40;1.40;;;1.23;;
3359;SDS011;1693;49.602;11.046;2023-04-30T12:30:08;1.40;;;1.00;;
3359;SDS011;1693;49.602;11.046;2023-04-30T12:32:38;1.50;;;1.10;;
3359;SDS011;1693;49.602;11.046;2023-04-30T12:35:08;2.57;;;1.10;;
3359;SDS011;1693;49.602;11.046;2023-04-30T12:37:40;2.33;;;1.27;;
3359;SDS011;1693;49.602;11.046;2023-04-30T12:40:08;1.33;;;0.80;;
3359;SDS011;1693;49.602;11.046;2023-04-30T12:42:36;1.90;;;1.30;;
3359;SDS011;1693;49.602;11.046;2023-04-30T12:45:04;2.90;;;1.23;;
3359;SDS011;1693;49.602;11.046;2023-04-30T12:47:36;1.50;;;1.20;;
3359;SDS011;1693;49.602;11.046;2023-04-30T12:50:07;1.60;;;1.10;;
3359;SDS011;1693;49.602;11.046;2023-04-30T12:52:36;1.40;;;0.90;;
3359;SDS011;1693;49.602;11.046;2023-04-30T12:55:15;1.30;;;1.10;;
3359;SDS011;1693;49.602;11.046;2023-04-30T13:03:16;1.30;;;1.17;;
3359;SDS011;1693;49.602;11.046;2023-04-30T13:05:45;1.40;;;1.10;;
3359;SDS011;1693;49.602;11.046;2023-04-30T13:08:13;2.30;;;1.33;;
3359;SDS011;1693;49.602;11.046;2023-04-30T13:10:41;1.60;;;1.10;;
3359;SDS011;1693;49.602;11.046;2023-04-30T13:13:09;2.00;;;1.10;;
3359;SDS011;1693;49.602;11.046;2023-04-30T13:15:36;3.90;;;1.37;;
3359;SDS011;1693;49.602;11.046;2023-04-30T13:18:03;2.00;;;1.10;;
3359;SDS011;1693;49.602;11.046;2023-04-30T13:20:34;1.10;;;0.90;;
3359;SDS011;1693;49.602;11.046;2023-04-30T13:23:01;1.73;;;1.00;;
3359;SDS011;1693;49.602;11.046;2023-04-30T13:25:29;1.20;;;0.93;;
3359;SDS011;1693;49.602;11.046;2023-04-30T13:27:56;1.70;;;1.37;;
3359;SDS011;1693;49.602;11.046;2023-04-30T13:30:23;3.30;;;1.17;;
3359;SDS011;1693;49.602;11.046;2023-04-30T13:32:50;1.57;;;0.90;;
3359;SDS011;1693;49.602;11.046;2023-04-30T13:35:17;1.80;;;1.10;;
3359;SDS011;1693;49.602;11.046;2023-04-30T13:37:46;1.30;;;0.80;;
3359;SDS011;1693;49.602;11.046;2023-04-30T13:40:16;2.03;;;0.70;;
3359;SDS011;1693;49.602;11.046;2023-04-30T13:42:45;1.53;;;1.00;;
3359;SDS011;1693;49.602;11.046;2023-04-30T13:45:13;1.43;;;1.00;;
3359;SDS011;1693;49.602;11.046;2023-04-30T13:47:40;1.30;;;1.00;;
3359;SDS011;1693;49.602;11.046;2023-04-30T13:50:08;1.20;;;0.90;;
3359;SDS011;1693;49.602;11.046;2023-04-30T13:52:35;2.70;;;1.10;;
3359;SDS011;1693;49.602;11.046;2023-04-30T13:55:04;1.37;;;0.90;;
3359;SDS011;1693;49.602;11.046;2023-04-30T13:57:33;1.40;;;0.80;;
3359;SDS011;1693;49.602;11.046;2023-04-30T14:00:00;1.27;;;0.80;;
3359;SDS011;1693;49.602;11.046;2023-04-30T14:02:29;1.70;;;1.00;;
3359;SDS011;1693;49.602;11.046;2023-04-30T14:04:56;1.10;;;0.70;;
3359;SDS011;1693;49.602;11.046;2023-04-30T14:07:23;1.83;;;0.93;;
3359;SDS011;1693;49.602;11.046;2023-04-30T14:09:50;2.57;;;0.90;;
3359;SDS011;1693;49.602;11.046;2023-04-30T14:12:19;1.92;;;0.90;;
3359;SDS011;1693;49.602;11.046;2023-04-30T14:14:48;1.10;;;0.93;;
3359;SDS011;1693;49.602;11.046;2023-04-30T14:17:15;1.40;;;0.97;;
3359;SDS011;1693;49.602;11.046;2023-04-30T14:19:42;1.10;;;0.70;;
3359;SDS011;1693;49.602;11.046;2023-04-30T14:22:09;1.33;;;0.83;;
3359;SDS011;1693;49.602;11.046;2023-04-30T14:24:36;2.50;;;1.10;;
3359;SDS011;1693;49.602;11.046;2023-04-30T14:27:03;1.27;;;0.70;;
3359;SDS011;1693;49.602;11.046;2023-04-30T14:29:35;1.40;;;0.90;;
3359;SDS011;1693;49.602;11.046;2023-04-30T14:32:03;4.13;;;1.00;;
3359;SDS011;1693;49.602;11.046;2023-04-30T14:34:31;1.10;;;0.63;;
3359;SDS011;1693;49.602;11.046;2023-04-30T14:36:58;2.03;;;1.00;;
3359;SDS011;1693;49.602;11.046;2023-04-30T14:39:27;1.83;;;0.90;;
3359;SDS011;1693;49.602;11.046;2023-04-30T14:41:54;1.50;;;1.00;;
3359;SDS011;1693;49.602;11.046;2023-04-30T14:44:22;1.20;;;0.80;;
3359;SDS011;1693;49.602;11.046;2023-04-30T14:46:51;1.00;;;0.70;;
3359;SDS011;1693;49.602;11.046;2023-04-30T14:49:18;1.10;;;0.70;;
3359;SDS011;1693;49.602;11.046;2023-04-30T14:51:45;2.13;;;0.87;;
3359;SDS011;1693;49.602;11.046;2023-04-30T14:54:12;1.30;;;0.80;;
3359;SDS011;1693;49.602;11.046;2023-04-30T14:56:40;1.20;;;0.80;;
3359;SDS011;1693;49.602;11.046;2023-04-30T14:59:08;1.20;;;0.80;;
3359;SDS011;1693;49.602;11.046;2023-04-30T15:01:36;1.63;;;0.90;;
3359;SDS011;1693;49.602;11.046;2023-04-30T15:04:04;1.57;;;1.00;;
3359;SDS011;1693;49.602;11.046;2023-04-30T15:06:31;1.30;;;0.80;;
3359;SDS011;1693;49.602;11.046;2023-04-30T15:08:58;1.73;;;1.07;;
3359;SDS011;1693;49.602;11.046;2023-04-30T15:11:26;1.30;;;0.97;;
3359;SDS011;1693;49.602;11.046;2023-04-30T15:13:53;3.93;;;1.23;;
3359;SDS011;1693;49.602;11.046;2023-04-30T15:16:20;1.20;;;0.90;;
3359;SDS011;1693;49.602;11.046;2023-04-30T15:18:48;1.40;;;0.87;;